Santa Teresa, NM

4:28 AM MDT on September 03, 2015 (GMT -0600)
Carvel acres | | Change Station
CLOSE
Current Station
Personal Weather Station
Location: El Paso, TX
Elevation: 3743 ft
Nearby Weather Stations

Elev 3743 ft 31.85 °N, 106.62 °W | Updated 11 minutes ago

Mostly Cloudy
Mostly Cloudy
72.3 °F
Feels Like 77 °F
N
0.0
Wind Variable Wind from East

Today
High -- | Low -- °F
--% Chance of Precip.
Yesterday
High -- | Low -- °F
Precip. -- in
6:43 AM 7:28 PM
Waning Gibbous, 71% visible
Pressure 29.83 in
Visibility 10.0 miles
Clouds Mostly Cloudy 16000 ft
Overcast 21000 ft
Heat Index 77 °F
Dew Point 55 °F
Humidity 54%
Rainfall 0.00 in
Snow Depth Not available.
UV 0 out of 12
Pollen 9.30 out of 12
Air Quality Not available.
Flu Activity Not available.
METAR KBIF 030958Z 03005KT 10SM BKN160 OVC210 24/10 A3005 RMK AO2A SLP102 T02420099 $
Pressure 29.83 in
Visibility 10.0 miles
Clouds Mostly Cloudy 16000 ft
Overcast 21000 ft
Heat Index 77 °F
Dew Point 55 °F
Humidity 54%
Rainfall 0.00 in
Snow Depth Not available.
UV 0 out of 12
Pollen 9.30 out of 12
Air Quality Not available.
Flu Activity Not available.
METAR KBIF 030958Z 03005KT 10SM BKN160 OVC210 24/10 A3005 RMK AO2A SLP102 T02420099 $

10-Day Weather Forecast

×

Almanac

Astronomy

Sep. 03, 2015 Rise Set
Actual Time
Civil Twilight
Nautical Twilight
Astronomical Twilight
Moon
Length of Visible Light
Length of Day
Tomorrow will be .
, % of the Moon is Illuminated

Today's Extremes

State Highs State Lows

Community

WunderPhotos

Upload Photos

1,851,929 photos uploaded!

WunderBlogs® & News

Nearby

Air Quality

  Air Quality AQ Index Pollutant
Not available.

Snow Depth

Station Depth Elevation

Earthquake Activity

City Distance Mag. Time & Date
Minimum magnitude displayed is 2.5.

Coastal Water Temperatures

Place Temperature

Stations

Nearby Weather Stations

Station Location Temp. Windchill Dew Point Humidity Wind Precip. Elev Updated Type